sensor_id;sensor_type;location;lat;lon;timestamp;P1;durP1;ratioP1;P2;durP2;ratioP2
52434;SDS011;38354;52.892;6.148;2024-01-15T04:02:41;13.75;;;1.73;;
52434;SDS011;38354;52.892;6.148;2024-01-15T04:05:07;15.45;;;2.95;;
52434;SDS011;38354;52.892;6.148;2024-01-15T04:07:32;18.65;;;1.95;;
52434;SDS011;38354;52.892;6.148;2024-01-15T04:09:58;15.10;;;2.58;;
52434;SDS011;38354;52.892;6.148;2024-01-15T04:12:24;11.77;;;1.77;;
52434;SDS011;38354;52.892;6.148;2024-01-15T04:14:50;16.45;;;2.05;;
52434;SDS011;38354;52.892;6.148;2024-01-15T04:17:15;15.02;;;2.97;;
52434;SDS011;38354;52.892;6.148;2024-01-15T04:19:43;15.95;;;1.98;;
52434;SDS011;38354;52.892;6.148;2024-01-15T04:22:09;17.83;;;2.30;;
52434;SDS011;38354;52.892;6.148;2024-01-15T04:24:35;13.70;;;2.03;;
52434;SDS011;38354;52.892;6.148;2024-01-15T04:27:00;15.40;;;2.47;;
52434;SDS011;38354;52.892;6.148;2024-01-15T04:29:26;15.20;;;1.85;;
52434;SDS011;38354;52.892;6.148;2024-01-15T04:31:52;19.25;;;1.90;;
52434;SDS011;38354;52.892;6.148;2024-01-15T04:34:18;13.30;;;1.83;;
52434;SDS011;38354;52.892;6.148;2024-01-15T04:36:44;14.55;;;1.77;;
52434;SDS011;38354;52.892;6.148;2024-01-15T04:39:09;15.65;;;1.40;;
52434;SDS011;38354;52.892;6.148;2024-01-15T04:41:36;13.73;;;1.98;;
52434;SDS011;38354;52.892;6.148;2024-01-15T04:44:02;15.57;;;2.72;;
52434;SDS011;38354;52.892;6.148;2024-01-15T04:46:28;10.07;;;1.35;;
52434;SDS011;38354;52.892;6.148;2024-01-15T04:48:53;10.30;;;1.35;;
52434;SDS011;38354;52.892;6.148;2024-01-15T04:51:19;15.13;;;1.48;;
52434;SDS011;38354;52.892;6.148;2024-01-15T04:53:45;7.63;;;1.33;;
52434;SDS011;38354;52.892;6.148;2024-01-15T04:56:10;26.95;;;3.20;;
52434;SDS011;38354;52.892;6.148;2024-01-15T04:58:36;12.38;;;1.75;;
52434;SDS011;38354;52.892;6.148;2024-01-15T05:01:01;9.50;;;1.50;;
52434;SDS011;38354;52.892;6.148;2024-01-15T05:03:28;12.02;;;1.48;;
52434;SDS011;38354;52.892;6.148;2024-01-15T05:05:54;8.90;;;1.15;;
52434;SDS011;38354;52.892;6.148;2024-01-15T05:08:20;7.85;;;1.00;;
52434;SDS011;38354;52.892;6.148;2024-01-15T05:10:46;9.15;;;1.63;;
52434;SDS011;38354;52.892;6.148;2024-01-15T05:13:12;8.98;;;1.55;;
52434;SDS011;38354;52.892;6.148;2024-01-15T05:15:38;9.35;;;1.55;;
52434;SDS011;38354;52.892;6.148;2024-01-15T05:18:04;13.13;;;1.27;;
52434;SDS011;38354;52.892;6.148;2024-01-15T05:20:30;10.25;;;1.80;;
52434;SDS011;38354;52.892;6.148;2024-01-15T05:22:56;7.95;;;1.45;;
52434;SDS011;38354;52.892;6.148;2024-01-15T05:25:21;10.05;;;1.27;;
52434;SDS011;38354;52.892;6.148;2024-01-15T05:27:47;15.68;;;2.28;;
52434;SDS011;38354;52.892;6.148;2024-01-15T05:30:13;9.63;;;1.30;;
52434;SDS011;38354;52.892;6.148;2024-01-15T05:32:39;9.18;;;2.50;;
52434;SDS011;38354;52.892;6.148;2024-01-15T05:35:05;4.43;;;0.98;;
52434;SDS011;38354;52.892;6.148;2024-01-15T05:37:31;15.93;;;1.63;;
52434;SDS011;38354;52.892;6.148;2024-01-15T05:39:56;8.20;;;1.25;;
52434;SDS011;38354;52.892;6.148;2024-01-15T05:42:22;7.75;;;1.55;;
52434;SDS011;38354;52.892;6.148;2024-01-15T05:44:47;12.45;;;2.08;;
52434;SDS011;38354;52.892;6.148;2024-01-15T05:47:13;12.60;;;2.08;;
52434;SDS011;38354;52.892;6.148;2024-01-15T05:49:39;8.75;;;1.33;;
52434;SDS011;38354;52.892;6.148;2024-01-15T05:52:04;10.82;;;1.92;;
52434;SDS011;38354;52.892;6.148;2024-01-15T05:54:30;14.32;;;1.85;;
52434;SDS011;38354;52.892;6.148;2024-01-15T05:56:56;14.85;;;1.83;;
52434;SDS011;38354;52.892;6.148;2024-01-15T05:59:21;8.73;;;1.55;;
52434;SDS011;38354;52.892;6.148;2024-01-15T06:01:47;12.75;;;1.80;;
52434;SDS011;38354;52.892;6.148;2024-01-15T06:04:12;12.43;;;2.08;;
52434;SDS011;38354;52.892;6.148;2024-01-15T06:06:38;13.38;;;1.83;;
52434;SDS011;38354;52.892;6.148;2024-01-15T06:09:04;17.58;;;2.35;;
52434;SDS011;38354;52.892;6.148;2024-01-15T06:11:32;19.15;;;2.08;;
52434;SDS011;38354;52.892;6.148;2024-01-15T06:13:58;20.42;;;2.13;;
52434;SDS011;38354;52.892;6.148;2024-01-15T06:16:25;19.02;;;2.33;;
52434;SDS011;38354;52.892;6.148;2024-01-15T06:18:51;13.93;;;2.00;;
52434;SDS011;38354;52.892;6.148;2024-01-15T06:21:17;12.25;;;1.40;;
52434;SDS011;38354;52.892;6.148;2024-01-15T06:23:42;12.10;;;1.95;;
52434;SDS011;38354;52.892;6.148;2024-01-15T06:26:08;15.43;;;2.08;;
52434;SDS011;38354;52.892;6.148;2024-01-15T06:28:36;13.25;;;1.60;;
52434;SDS011;38354;52.892;6.148;2024-01-15T06:31:02;13.20;;;2.30;;
52434;SDS011;38354;52.892;6.148;2024-01-15T06:33:28;13.57;;;1.92;;
52434;SDS011;38354;52.892;6.148;2024-01-15T06:35:53;15.55;;;1.98;;
52434;SDS011;38354;52.892;6.148;2024-01-15T06:38:19;16.38;;;2.30;;
52434;SDS011;38354;52.892;6.148;2024-01-15T06:40:45;17.50;;;1.98;;
52434;SDS011;38354;52.892;6.148;2024-01-15T06:43:12;21.20;;;2.10;;
52434;SDS011;38354;52.892;6.148;2024-01-15T06:45:38;13.45;;;1.83;;
52434;SDS011;38354;52.892;6.148;2024-01-15T06:48:04;15.77;;;2.75;;
52434;SDS011;38354;52.892;6.148;2024-01-15T06:50:30;20.13;;;1.83;;
52434;SDS011;38354;52.892;6.148;2024-01-15T06:52:55;15.90;;;1.67;;
52434;SDS011;38354;52.892;6.148;2024-01-15T06:55:21;13.43;;;2.30;;
52434;SDS011;38354;52.892;6.148;2024-01-15T06:57:47;13.25;;;1.95;;
52434;SDS011;38354;52.892;6.148;2024-01-15T07:00:13;15.85;;;2.10;;
52434;SDS011;38354;52.892;6.148;2024-01-15T07:02:39;14.85;;;1.52;;
52434;SDS011;38354;52.892;6.148;2024-01-15T07:05:04;14.73;;;2.75;;
52434;SDS011;38354;52.892;6.148;2024-01-15T07:07:30;14.13;;;1.70;;
52434;SDS011;38354;52.892;6.148;2024-01-15T07:09:56;11.70;;;1.55;;
52434;SDS011;38354;52.892;6.148;2024-01-15T07:12:24;13.85;;;1.75;;
52434;SDS011;38354;52.892;6.148;2024-01-15T07:14:50;18.88;;;2.47;;
52434;SDS011;38354;52.892;6.148;2024-01-15T07:17:15;17.55;;;1.98;;
52434;SDS011;38354;52.892;6.148;2024-01-15T07:19:41;9.68;;;2.17;;
52434;SDS011;38354;52.892;6.148;2024-01-15T07:22:07;15.68;;;2.08;;
52434;SDS011;38354;52.892;6.148;2024-01-15T07:24:32;15.70;;;1.95;;
52434;SDS011;38354;52.892;6.148;2024-01-15T07:27:00;15.27;;;1.85;;
52434;SDS011;38354;52.892;6.148;2024-01-15T07:29:26;15.32;;;2.58;;
52434;SDS011;38354;52.892;6.148;2024-01-15T07:31:52;16.33;;;2.10;;
52434;SDS011;38354;52.892;6.148;2024-01-15T07:34:18;14.77;;;2.05;;
52434;SDS011;38354;52.892;6.148;2024-01-15T07:36:44;9.48;;;1.70;;
52434;SDS011;38354;52.892;6.148;2024-01-15T07:39:10;11.40;;;1.90;;
52434;SDS011;38354;52.892;6.148;2024-01-15T07:41:36;13.80;;;1.85;;
52434;SDS011;38354;52.892;6.148;2024-01-15T07:44:02;15.45;;;2.03;;
52434;SDS011;38354;52.892;6.148;2024-01-15T07:46:28;12.15;;;2.40;;
52434;SDS011;38354;52.892;6.148;2024-01-15T07:48:53;18.55;;;1.83;;
52434;SDS011;38354;52.892;6.148;2024-01-15T07:51:23;11.55;;;2.17;;
52434;SDS011;38354;52.892;6.148;2024-01-15T07:53:49;11.35;;;1.73;;
52434;SDS011;38354;52.892;6.148;2024-01-15T07:56:18;9.25;;;1.92;;
52434;SDS011;38354;52.892;6.148;2024-01-15T07:58:44;12.20;;;1.80;;
52434;SDS011;38354;52.892;6.148;2024-01-15T08:01:10;12.30;;;1.42;;
52434;SDS011;38354;52.892;6.148;2024-01-15T08:03:35;12.80;;;2.13;;
52434;SDS011;38354;52.892;6.148;2024-01-15T08:06:01;17.70;;;2.72;;
52434;SDS011;38354;52.892;6.148;2024-01-15T08:08:27;16.17;;;2.13;;
52434;SDS011;38354;52.892;6.148;2024-01-15T08:10:52;19.23;;;1.95;;
52434;SDS011;38354;52.892;6.148;2024-01-15T08:13:18;11.25;;;2.55;;
52434;SDS011;38354;52.892;6.148;2024-01-15T08:15:45;14.52;;;1.92;;
52434;SDS011;38354;52.892;6.148;2024-01-15T08:18:11;11.35;;;2.17;;
52434;SDS011;38354;52.892;6.148;2024-01-15T08:20:37;16.30;;;2.42;;
52434;SDS011;38354;52.892;6.148;2024-01-15T08:23:03;8.93;;;2.22;;
52434;SDS011;38354;52.892;6.148;2024-01-15T08:25:29;13.75;;;2.30;;
52434;SDS011;38354;52.892;6.148;2024-01-15T08:27:56;12.43;;;1.80;;
52434;SDS011;38354;52.892;6.148;2024-01-15T08:30:22;15.10;;;1.98;;
52434;SDS011;38354;52.892;6.148;2024-01-15T08:32:52;15.30;;;2.33;;
52434;SDS011;38354;52.892;6.148;2024-01-15T08:35:21;9.35;;;1.90;;
52434;SDS011;38354;52.892;6.148;2024-01-15T08:40:36;17.10;;;2.03;;
52434;SDS011;38354;52.892;6.148;2024-01-15T08:43:02;17.67;;;1.80;;
52434;SDS011;38354;52.892;6.148;2024-01-15T08:45:28;10.57;;;1.60;;
52434;SDS011;38354;52.892;6.148;2024-01-15T08:47:54;20.23;;;2.35;;
52434;SDS011;38354;52.892;6.148;2024-01-15T08:50:19;12.88;;;1.88;;
52434;SDS011;38354;52.892;6.148;2024-01-15T08:52:45;24.30;;;3.17;;
52434;SDS011;38354;52.892;6.148;2024-01-15T08:55:11;16.13;;;2.35;;
52434;SDS011;38354;52.892;6.148;2024-01-15T08:57:38;12.85;;;2.05;;
52434;SDS011;38354;52.892;6.148;2024-01-15T09:00:04;9.65;;;1.58;;
52434;SDS011;38354;52.892;6.148;2024-01-15T09:02:33;8.63;;;2.30;;
52434;SDS011;38354;52.892;6.148;2024-01-15T09:05:00;11.80;;;1.73;;
52434;SDS011;38354;52.892;6.148;2024-01-15T09:07:26;10.60;;;1.63;;
52434;SDS011;38354;52.892;6.148;2024-01-15T09:09:52;11.15;;;1.92;;
52434;SDS011;38354;52.892;6.148;2024-01-15T09:12:18;12.85;;;2.03;;
52434;SDS011;38354;52.892;6.148;2024-01-15T09:14:46;11.95;;;1.73;;
52434;SDS011;38354;52.892;6.148;2024-01-15T09:17:12;11.52;;;1.75;;
52434;SDS011;38354;52.892;6.148;2024-01-15T09:19:37;15.23;;;2.25;;
52434;SDS011;38354;52.892;6.148;2024-01-15T09:22:05;19.38;;;2.28;;
52434;SDS011;38354;52.892;6.148;2024-01-15T09:24:30;12.85;;;1.63;;
52434;SDS011;38354;52.892;6.148;2024-01-15T09:26:56;9.95;;;1.83;;
52434;SDS011;38354;52.892;6.148;2024-01-15T09:29:22;13.40;;;2.33;;
52434;SDS011;38354;52.892;6.148;2024-01-15T09:31:48;17.10;;;2.53;;
52434;SDS011;38354;52.892;6.148;2024-01-15T09:34:15;16.73;;;1.92;;
52434;SDS011;38354;52.892;6.148;2024-01-15T09:36:41;16.05;;;2.33;;
52434;SDS011;38354;52.892;6.148;2024-01-15T09:39:08;14.85;;;1.95;;
52434;SDS011;38354;52.892;6.148;2024-01-15T09:41:37;7.70;;;1.23;;
52434;SDS011;38354;52.892;6.148;2024-01-15T09:44:03;13.18;;;1.88;;
52434;SDS011;38354;52.892;6.148;2024-01-15T09:46:30;7.13;;;1.52;;
52434;SDS011;38354;52.892;6.148;2024-01-15T09:48:57;9.73;;;1.25;;
52434;SDS011;38354;52.892;6.148;2024-01-15T09:51:24;15.40;;;1.70;;
52434;SDS011;38354;52.892;6.148;2024-01-15T09:53:50;5.72;;;0.90;;
52434;SDS011;38354;52.892;6.148;2024-01-15T09:56:16;6.07;;;1.13;;
52434;SDS011;38354;52.892;6.148;2024-01-15T09:58:42;9.23;;;1.02;;
52434;SDS011;38354;52.892;6.148;2024-01-15T10:01:09;8.45;;;1.15;;
52434;SDS011;38354;52.892;6.148;2024-01-15T10:03:36;8.65;;;1.30;;
52434;SDS011;38354;52.892;6.148;2024-01-15T10:06:03;11.32;;;1.73;;
52434;SDS011;38354;52.892;6.148;2024-01-15T10:08:29;7.93;;;1.67;;
52434;SDS011;38354;52.892;6.148;2024-01-15T10:10:55;10.63;;;1.67;;
52434;SDS011;38354;52.892;6.148;2024-01-15T10:13:20;7.50;;;1.40;;
52434;SDS011;38354;52.892;6.148;2024-01-15T10:15:47;8.00;;;1.83;;
52434;SDS011;38354;52.892;6.148;2024-01-15T10:18:13;15.55;;;3.35;;
52434;SDS011;38354;52.892;6.148;2024-01-15T10:20:39;11.85;;;2.15;;
52434;SDS011;38354;52.892;6.148;2024-01-15T10:23:05;10.82;;;1.38;;
52434;SDS011;38354;52.892;6.148;2024-01-15T10:25:30;8.68;;;1.50;;
52434;SDS011;38354;52.892;6.148;2024-01-15T10:28:00;5.28;;;0.82;;
52434;SDS011;38354;52.892;6.148;2024-01-15T10:30:26;12.05;;;1.67;;
52434;SDS011;38354;52.892;6.148;2024-01-15T10:33:02;5.70;;;1.20;;
52434;SDS011;38354;52.892;6.148;2024-01-15T10:35:29;8.68;;;1.08;;
52434;SDS011;38354;52.892;6.148;2024-01-15T10:37:56;8.05;;;1.02;;
52434;SDS011;38354;52.892;6.148;2024-01-15T10:40:21;8.23;;;1.73;;
52434;SDS011;38354;52.892;6.148;2024-01-15T10:42:47;5.15;;;1.20;;
52434;SDS011;38354;52.892;6.148;2024-01-15T10:45:13;4.68;;;0.82;;
52434;SDS011;38354;52.892;6.148;2024-01-15T10:47:40;1.85;;;0.60;;
52434;SDS011;38354;52.892;6.148;2024-01-15T10:50:07;1.58;;;0.43;;
52434;SDS011;38354;52.892;6.148;2024-01-15T10:52:36;2.03;;;0.45;;
52434;SDS011;38354;52.892;6.148;2024-01-15T10:55:03;1.75;;;0.28;;
52434;SDS011;38354;52.892;6.148;2024-01-15T10:57:30;1.58;;;0.30;;
52434;SDS011;38354;52.892;6.148;2024-01-15T10:59:56;2.25;;;0.40;;
52434;SDS011;38354;52.892;6.148;2024-01-15T11:02:23;1.85;;;0.30;;
52434;SDS011;38354;52.892;6.148;2024-01-15T11:04:50;3.05;;;0.40;;
52434;SDS011;38354;52.892;6.148;2024-01-15T11:07:16;3.20;;;0.52;;
52434;SDS011;38354;52.892;6.148;2024-01-15T11:09:43;2.20;;;0.43;;
52434;SDS011;38354;52.892;6.148;2024-01-15T11:12:12;3.08;;;0.52;;
52434;SDS011;38354;52.892;6.148;2024-01-15T11:14:50;1.65;;;0.50;;
52434;SDS011;38354;52.892;6.148;2024-01-15T11:17:17;4.18;;;0.60;;
52434;SDS011;38354;52.892;6.148;2024-01-15T11:19:47;2.63;;;0.50;;
52434;SDS011;38354;52.892;6.148;2024-01-15T11:24:55;3.50;;;0.70;;
52434;SDS011;38354;52.892;6.148;2024-01-15T11:27:40;5.53;;;0.80;;
52434;SDS011;38354;52.892;6.148;2024-01-15T11:30:10;6.18;;;0.65;;
52434;SDS011;38354;52.892;6.148;2024-01-15T11:32:37;8.80;;;0.88;;
52434;SDS011;38354;52.892;6.148;2024-01-15T11:35:06;8.02;;;0.95;;
52434;SDS011;38354;52.892;6.148;2024-01-15T11:40:35;5.20;;;1.10;;
52434;SDS011;38354;52.892;6.148;2024-01-15T11:43:03;10.98;;;2.20;;
52434;SDS011;38354;52.892;6.148;2024-01-15T11:45:29;8.15;;;1.17;;
52434;SDS011;38354;52.892;6.148;2024-01-15T11:48:09;11.00;;;1.75;;
52434;SDS011;38354;52.892;6.148;2024-01-15T11:50:42;10.20;;;1.65;;
52434;SDS011;38354;52.892;6.148;2024-01-15T11:53:21;10.50;;;1.30;;
52434;SDS011;38354;52.892;6.148;2024-01-15T11:55:53;8.05;;;1.35;;
52434;SDS011;38354;52.892;6.148;2024-01-15T11:58:26;4.07;;;0.63;;
52434;SDS011;38354;52.892;6.148;2024-01-15T12:00:52;3.95;;;1.00;;
52434;SDS011;38354;52.892;6.148;2024-01-15T12:03:22;4.55;;;1.05;;
52434;SDS011;38354;52.892;6.148;2024-01-15T12:05:49;6.50;;;0.77;;
52434;SDS011;38354;52.892;6.148;2024-01-15T12:08:23;4.10;;;0.70;;
52434;SDS011;38354;52.892;6.148;2024-01-15T12:10:50;8.68;;;1.13;;
52434;SDS011;38354;52.892;6.148;2024-01-15T12:13:16;3.35;;;0.80;;
52434;SDS011;38354;52.892;6.148;2024-01-15T12:15:43;6.93;;;0.75;;
52434;SDS011;38354;52.892;6.148;2024-01-15T12:18:12;6.93;;;0.47;;
52434;SDS011;38354;52.892;6.148;2024-01-15T12:20:39;6.45;;;0.70;;
52434;SDS011;38354;52.892;6.148;2024-01-15T12:23:05;5.28;;;0.73;;
52434;SDS011;38354;52.892;6.148;2024-01-15T12:25:31;4.10;;;0.73;;
52434;SDS011;38354;52.892;6.148;2024-01-15T12:27:58;5.25;;;0.98;;
52434;SDS011;38354;52.892;6.148;2024-01-15T12:30:28;4.07;;;0.93;;
52434;SDS011;38354;52.892;6.148;2024-01-15T12:32:56;7.93;;;1.10;;
52434;SDS011;38354;52.892;6.148;2024-01-15T12:35:23;7.95;;;1.27;;
52434;SDS011;38354;52.892;6.148;2024-01-15T12:37:49;5.60;;;1.20;;
52434;SDS011;38354;52.892;6.148;2024-01-15T12:40:18;8.05;;;1.45;;
52434;SDS011;38354;52.892;6.148;2024-01-15T12:42:44;5.78;;;1.15;;
52434;SDS011;38354;52.892;6.148;2024-01-15T12:45:11;5.15;;;1.10;;
52434;SDS011;38354;52.892;6.148;2024-01-15T12:47:38;6.80;;;1.35;;
52434;SDS011;38354;52.892;6.148;2024-01-15T12:50:08;2.38;;;0.82;;
52434;SDS011;38354;52.892;6.148;2024-01-15T12:52:35;9.50;;;1.35;;
52434;SDS011;38354;52.892;6.148;2024-01-15T12:55:02;7.35;;;1.42;;
52434;SDS011;38354;52.892;6.148;2024-01-15T12:57:32;6.32;;;1.20;;
52434;SDS011;38354;52.892;6.148;2024-01-15T12:59:59;8.90;;;1.38;;
52434;SDS011;38354;52.892;6.148;2024-01-15T13:02:24;7.63;;;1.50;;
52434;SDS011;38354;52.892;6.148;2024-01-15T13:04:50;9.25;;;1.98;;
52434;SDS011;38354;52.892;6.148;2024-01-15T13:07:16;6.18;;;1.50;;
52434;SDS011;38354;52.892;6.148;2024-01-15T13:09:42;7.43;;;1.42;;
52434;SDS011;38354;52.892;6.148;2024-01-15T13:12:08;8.60;;;3.22;;
52434;SDS011;38354;52.892;6.148;2024-01-15T13:14:34;16.75;;;2.70;;
52434;SDS011;38354;52.892;6.148;2024-01-15T13:17:00;15.40;;;3.90;;
52434;SDS011;38354;52.892;6.148;2024-01-15T13:19:25;15.90;;;3.63;;
52434;SDS011;38354;52.892;6.148;2024-01-15T13:21:52;14.07;;;4.35;;
52434;SDS011;38354;52.892;6.148;2024-01-15T13:24:18;12.02;;;2.85;;
52434;SDS011;38354;52.892;6.148;2024-01-15T13:26:44;8.35;;;1.63;;
52434;SDS011;38354;52.892;6.148;2024-01-15T13:29:10;9.23;;;1.98;;
52434;SDS011;38354;52.892;6.148;2024-01-15T13:31:36;15.23;;;2.13;;
52434;SDS011;38354;52.892;6.148;2024-01-15T13:34:01;9.55;;;1.35;;
52434;SDS011;38354;52.892;6.148;2024-01-15T13:36:28;11.93;;;1.52;;
52434;SDS011;38354;52.892;6.148;2024-01-15T13:38:54;8.95;;;1.35;;
52434;SDS011;38354;52.892;6.148;2024-01-15T13:41:20;5.75;;;1.50;;
52434;SDS011;38354;52.892;6.148;2024-01-15T13:43:52;13.05;;;1.85;;
52434;SDS011;38354;52.892;6.148;2024-01-15T13:46:19;17.25;;;2.13;;
52434;SDS011;38354;52.892;6.148;2024-01-15T13:48:46;10.00;;;2.05;;
52434;SDS011;38354;52.892;6.148;2024-01-15T13:51:12;10.55;;;2.10;;
52434;SDS011;38354;52.892;6.148;2024-01-15T13:53:38;11.27;;;1.75;;
52434;SDS011;38354;52.892;6.148;2024-01-15T13:56:04;7.25;;;1.60;;
52434;SDS011;38354;52.892;6.148;2024-01-15T13:58:31;20.20;;;2.88;;
52434;SDS011;38354;52.892;6.148;2024-01-15T14:00:58;9.93;;;2.13;;
52434;SDS011;38354;52.892;6.148;2024-01-15T14:03:23;10.80;;;1.90;;
52434;SDS011;38354;52.892;6.148;2024-01-15T14:05:50;15.57;;;3.65;;
52434;SDS011;38354;52.892;6.148;2024-01-15T14:08:17;13.90;;;1.60;;
52434;SDS011;38354;52.892;6.148;2024-01-15T14:10:42;11.57;;;1.70;;
52434;SDS011;38354;52.892;6.148;2024-01-15T14:13:08;12.50;;;2.38;;
52434;SDS011;38354;52.892;6.148;2024-01-15T14:15:34;11.45;;;2.33;;
52434;SDS011;38354;52.892;6.148;2024-01-15T14:18:00;10.68;;;2.40;;
52434;SDS011;38354;52.892;6.148;2024-01-15T14:20:26;13.45;;;2.20;;
52434;SDS011;38354;52.892;6.148;2024-01-15T14:22:52;14.50;;;1.85;;
52434;SDS011;38354;52.892;6.148;2024-01-15T14:25:19;9.45;;;1.98;;
52434;SDS011;38354;52.892;6.148;2024-01-15T14:27:45;11.18;;;1.73;;
52434;SDS011;38354;52.892;6.148;2024-01-15T14:30:11;9.40;;;1.67;;
52434;SDS011;38354;52.892;6.148;2024-01-15T14:32:38;4.70;;;1.13;;
52434;SDS011;38354;52.892;6.148;2024-01-15T14:35:04;10.52;;;1.67;;
52434;SDS011;38354;52.892;6.148;2024-01-15T14:37:31;8.43;;;1.20;;
52434;SDS011;38354;52.892;6.148;2024-01-15T14:39:56;7.80;;;1.83;;
52434;SDS011;38354;52.892;6.148;2024-01-15T14:42:22;7.20;;;1.60;;
52434;SDS011;38354;52.892;6.148;2024-01-15T14:44:49;8.98;;;1.50;;
52434;SDS011;38354;52.892;6.148;2024-01-15T14:47:15;8.93;;;1.90;;
52434;SDS011;38354;52.892;6.148;2024-01-15T14:49:40;11.95;;;1.33;;
52434;SDS011;38354;52.892;6.148;2024-01-15T14:52:06;4.45;;;0.90;;
52434;SDS011;38354;52.892;6.148;2024-01-15T14:54:33;6.40;;;1.35;;
52434;SDS011;38354;52.892;6.148;2024-01-15T14:56:59;9.95;;;1.42;;
52434;SDS011;38354;52.892;6.148;2024-01-15T14:59:26;7.88;;;1.13;;
52434;SDS011;38354;52.892;6.148;2024-01-15T15:01:54;7.00;;;1.33;;
52434;SDS011;38354;52.892;6.148;2024-01-15T15:04:19;7.03;;;2.05;;
52434;SDS011;38354;52.892;6.148;2024-01-15T15:06:45;7.00;;;1.23;;
52434;SDS011;38354;52.892;6.148;2024-01-15T15:09:10;11.55;;;1.65;;
52434;SDS011;38354;52.892;6.148;2024-01-15T15:11:37;5.63;;;1.10;;
52434;SDS011;38354;52.892;6.148;2024-01-15T15:14:02;8.35;;;1.63;;
52434;SDS011;38354;52.892;6.148;2024-01-15T15:16:29;5.35;;;0.90;;
52434;SDS011;38354;52.892;6.148;2024-01-15T15:18:55;6.60;;;1.48;;
52434;SDS011;38354;52.892;6.148;2024-01-15T15:21:21;11.27;;;1.90;;
52434;SDS011;38354;52.892;6.148;2024-01-15T15:23:47;10.82;;;1.60;;
52434;SDS011;38354;52.892;6.148;2024-01-15T15:26:13;7.32;;;2.05;;
52434;SDS011;38354;52.892;6.148;2024-01-15T15:28:39;12.20;;;1.80;;
52434;SDS011;38354;52.892;6.148;2024-01-15T15:31:07;10.73;;;2.15;;
52434;SDS011;38354;52.892;6.148;2024-01-15T15:33:33;12.70;;;1.90;;
52434;SDS011;38354;52.892;6.148;2024-01-15T15:36:00;7.03;;;1.90;;
52434;SDS011;38354;52.892;6.148;2024-01-15T15:38:30;11.23;;;2.47;;
52434;SDS011;38354;52.892;6.148;2024-01-15T15:40:56;8.15;;;1.60;;
52434;SDS011;38354;52.892;6.148;2024-01-15T15:43:22;6.93;;;1.60;;
52434;SDS011;38354;52.892;6.148;2024-01-15T15:45:48;6.65;;;1.35;;
52434;SDS011;38354;52.892;6.148;2024-01-15T15:48:14;4.85;;;1.20;;
52434;SDS011;38354;52.892;6.148;2024-01-15T15:50:39;5.63;;;1.30;;
52434;SDS011;38354;52.892;6.148;2024-01-15T15:53:05;6.75;;;1.98;;
52434;SDS011;38354;52.892;6.148;2024-01-15T15:55:31;5.53;;;1.83;;
52434;SDS011;38354;52.892;6.148;2024-01-15T15:57:57;6.07;;;1.23;;
52434;SDS011;38354;52.892;6.148;2024-01-15T16:00:22;7.32;;;1.10;;
52434;SDS011;38354;52.892;6.148;2024-01-15T16:02:48;6.38;;;1.08;;
52434;SDS011;38354;52.892;6.148;2024-01-15T16:05:13;6.80;;;1.40;;
52434;SDS011;38354;52.892;6.148;2024-01-15T16:07:39;9.93;;;1.60;;
52434;SDS011;38354;52.892;6.148;2024-01-15T16:10:05;7.68;;;1.50;;
52434;SDS011;38354;52.892;6.148;2024-01-15T16:12:31;7.30;;;1.90;;
52434;SDS011;38354;52.892;6.148;2024-01-15T16:14:57;4.40;;;1.13;;
52434;SDS011;38354;52.892;6.148;2024-01-15T16:17:25;7.07;;;1.00;;
52434;SDS011;38354;52.892;6.148;2024-01-15T16:19:51;4.50;;;1.08;;
52434;SDS011;38354;52.892;6.148;2024-01-15T16:22:17;2.53;;;0.52;;
52434;SDS011;38354;52.892;6.148;2024-01-15T16:24:42;4.55;;;1.10;;
52434;SDS011;38354;52.892;6.148;2024-01-15T16:27:08;8.75;;;1.00;;
52434;SDS011;38354;52.892;6.148;2024-01-15T16:29:33;3.80;;;0.80;;
52434;SDS011;38354;52.892;6.148;2024-01-15T16:31:59;4.32;;;0.63;;
52434;SDS011;38354;52.892;6.148;2024-01-15T16:34:25;2.70;;;0.80;;
52434;SDS011;38354;52.892;6.148;2024-01-15T16:36:50;6.25;;;0.80;;
52434;SDS011;38354;52.892;6.148;2024-01-15T16:39:16;3.90;;;0.80;;
52434;SDS011;38354;52.892;6.148;2024-01-15T16:41:41;6.20;;;0.73;;
52434;SDS011;38354;52.892;6.148;2024-01-15T16:44:07;3.42;;;1.10;;
52434;SDS011;38354;52.892;6.148;2024-01-15T16:46:33;3.55;;;1.20;;
52434;SDS011;38354;52.892;6.148;2024-01-15T16:48:58;7.07;;;1.17;;
52434;SDS011;38354;52.892;6.148;2024-01-15T16:51:26;1.92;;;0.70;;
52434;SDS011;38354;52.892;6.148;2024-01-15T16:53:52;4.93;;;1.40;;
52434;SDS011;38354;52.892;6.148;2024-01-15T16:56:18;6.22;;;1.50;;
52434;SDS011;38354;52.892;6.148;2024-01-15T16:58:43;6.72;;;1.02;;
52434;SDS011;38354;52.892;6.148;2024-01-15T17:01:09;9.55;;;1.98;;
52434;SDS011;38354;52.892;6.148;2024-01-15T17:03:35;8.30;;;2.20;;
52434;SDS011;38354;52.892;6.148;2024-01-15T17:06:01;6.68;;;1.13;;
52434;SDS011;38354;52.892;6.148;2024-01-15T17:08:27;8.02;;;2.00;;
52434;SDS011;38354;52.892;6.148;2024-01-15T17:10:52;6.15;;;1.48;;
52434;SDS011;38354;52.892;6.148;2024-01-15T17:13:18;5.65;;;1.45;;
52434;SDS011;38354;52.892;6.148;2024-01-15T17:15:44;10.85;;;1.92;;
52434;SDS011;38354;52.892;6.148;2024-01-15T17:18:10;6.53;;;2.22;;
52434;SDS011;38354;52.892;6.148;2024-01-15T17:20:36;13.20;;;2.78;;
52434;SDS011;38354;52.892;6.148;2024-01-15T17:23:02;10.88;;;2.75;;
52434;SDS011;38354;52.892;6.148;2024-01-15T17:25:28;6.00;;;2.08;;
52434;SDS011;38354;52.892;6.148;2024-01-15T17:27:54;9.40;;;2.05;;
52434;SDS011;38354;52.892;6.148;2024-01-15T17:30:19;8.93;;;2.15;;
52434;SDS011;38354;52.892;6.148;2024-01-15T17:32:45;6.22;;;1.65;;
52434;SDS011;38354;52.892;6.148;2024-01-15T17:35:11;12.15;;;1.83;;
52434;SDS011;38354;52.892;6.148;2024-01-15T17:37:36;6.70;;;1.77;;
52434;SDS011;38354;52.892;6.148;2024-01-15T17:40:02;5.80;;;1.77;;
52434;SDS011;38354;52.892;6.148;2024-01-15T17:42:29;10.13;;;2.10;;
52434;SDS011;38354;52.892;6.148;2024-01-15T17:44:54;13.52;;;2.80;;
52434;SDS011;38354;52.892;6.148;2024-01-15T17:47:20;12.45;;;2.40;;
52434;SDS011;38354;52.892;6.148;2024-01-15T17:49:46;4.85;;;1.30;;
52434;SDS011;38354;52.892;6.148;2024-01-15T17:52:11;6.15;;;1.70;;
52434;SDS011;38354;52.892;6.148;2024-01-15T17:54:37;6.13;;;1.70;;
52434;SDS011;38354;52.892;6.148;2024-01-15T17:57:03;9.60;;;2.30;;
52434;SDS011;38354;52.892;6.148;2024-01-15T17:59:29;6.05;;;1.85;;
52434;SDS011;38354;52.892;6.148;2024-01-15T18:01:54;16.98;;;3.72;;
52434;SDS011;38354;52.892;6.148;2024-01-15T18:04:20;8.75;;;2.67;;
52434;SDS011;38354;52.892;6.148;2024-01-15T18:06:47;6.63;;;3.60;;
52434;SDS011;38354;52.892;6.148;2024-01-15T18:09:13;6.20;;;1.90;;
52434;SDS011;38354;52.892;6.148;2024-01-15T18:11:42;9.02;;;1.27;;
52434;SDS011;38354;52.892;6.148;2024-01-15T18:14:08;4.72;;;1.30;;
52434;SDS011;38354;52.892;6.148;2024-01-15T18:16:35;5.32;;;1.20;;
52434;SDS011;38354;52.892;6.148;2024-01-15T18:19:01;5.95;;;1.13;;
52434;SDS011;38354;52.892;6.148;2024-01-15T18:21:26;8.30;;;1.55;;
52434;SDS011;38354;52.892;6.148;2024-01-15T18:23:52;9.40;;;1.50;;
52434;SDS011;38354;52.892;6.148;2024-01-15T18:26:18;7.97;;;1.80;;
52434;SDS011;38354;52.892;6.148;2024-01-15T18:28:43;4.43;;;1.30;;
52434;SDS011;38354;52.892;6.148;2024-01-15T18:31:10;5.15;;;1.35;;
52434;SDS011;38354;52.892;6.148;2024-01-15T18:33:39;3.03;;;1.00;;
52434;SDS011;38354;52.892;6.148;2024-01-15T18:36:05;7.30;;;1.70;;
52434;SDS011;38354;52.892;6.148;2024-01-15T18:38:32;5.07;;;0.98;;
52434;SDS011;38354;52.892;6.148;2024-01-15T18:40:59;5.82;;;1.20;;
52434;SDS011;38354;52.892;6.148;2024-01-15T18:43:25;5.15;;;1.23;;
52434;SDS011;38354;52.892;6.148;2024-01-15T18:45:51;6.80;;;1.40;;